createdAt,value
2019-04-14T00:02:34.104Z,4.42
2019-04-14T00:05:04.503Z,4.15
2019-04-14T00:07:34.044Z,3.95
2019-04-14T00:10:03.135Z,4.60
2019-04-14T00:12:31.934Z,4.00
2019-04-14T00:15:00.672Z,4.62
2019-04-14T00:17:30.617Z,4.30
2019-04-14T00:19:59.493Z,4.47
2019-04-14T00:22:30.631Z,4.00
2019-04-14T00:24:59.718Z,4.05
2019-04-14T00:27:28.831Z,4.08
2019-04-14T00:29:58.896Z,3.62
2019-04-14T00:32:29.085Z,4.00
2019-04-14T00:35:02.324Z,4.12
2019-04-14T00:37:42.374Z,5.33
2019-04-14T00:40:22.031Z,4.05
2019-04-14T00:42:56.649Z,4.67
2019-04-14T00:45:37.897Z,4.53
2019-04-14T00:48:07.948Z,4.87
2019-04-14T00:50:32.455Z,4.58
2019-04-14T00:53:01.458Z,4.85
2019-04-14T00:55:31.276Z,4.17
2019-04-14T00:58:01.585Z,4.62
2019-04-14T01:00:31.903Z,4.90
2019-04-14T01:03:00.859Z,5.20
2019-04-14T01:05:32.601Z,4.70
2019-04-14T01:08:00.980Z,5.00
2019-04-14T01:10:30.072Z,4.20
2019-04-14T01:12:58.891Z,5.10
2019-04-14T01:15:28.919Z,4.72
2019-04-14T01:17:59.216Z,4.80
2019-04-14T01:20:28.155Z,5.08
2019-04-14T01:22:57.448Z,5.40
2019-04-14T01:25:26.304Z,4.58
2019-04-14T01:27:55.961Z,4.90
2019-04-14T01:30:26.165Z,4.70
2019-04-14T01:32:55.101Z,4.33
2019-04-14T01:35:24.866Z,4.20
2019-04-14T01:37:55.002Z,4.22
2019-04-14T01:40:24.870Z,4.15
2019-04-14T01:42:54.829Z,4.30
2019-04-14T01:45:23.791Z,4.70
2019-04-14T01:47:53.342Z,4.33
2019-04-14T01:50:23.839Z,4.30
2019-04-14T01:53:07.466Z,4.28
2019-04-14T01:55:44.106Z,4.20
2019-04-14T01:58:14.715Z,4.00
2019-04-14T02:00:45.241Z,4.10
2019-04-14T02:03:14.911Z,4.30
2019-04-14T02:05:43.719Z,4.40
2019-04-14T02:08:13.430Z,3.90
2019-04-14T02:10:43.493Z,4.22
2019-04-14T02:13:13.336Z,4.33
2019-04-14T02:15:42.387Z,4.22
2019-04-14T02:18:12.119Z,4.08
2019-04-14T02:20:40.966Z,4.42
2019-04-14T02:23:10.366Z,5.37
2019-04-14T02:25:40.426Z,5.10
2019-04-14T02:28:09.541Z,5.60
2019-04-14T02:30:46.937Z,6.80
2019-04-14T02:33:40.316Z,7.90
2019-04-14T02:36:19.893Z,10.28
2019-04-14T02:38:41.377Z,8.60
2019-04-14T02:43:44.989Z,6.30
2019-04-14T02:46:05.876Z,6.62
2019-04-14T02:48:44.773Z,11.05
2019-04-14T02:51:15.941Z,9.93
2019-04-14T02:53:44.443Z,6.50
2019-04-14T02:58:48.233Z,7.97
2019-04-14T03:01:21.135Z,8.40
2019-04-14T03:03:41.044Z,6.55
2019-04-14T03:08:52.044Z,5.60
2019-04-14T03:11:11.834Z,5.55
2019-04-14T03:13:49.574Z,5.97
2019-04-14T03:16:13.702Z,5.65
2019-04-14T03:21:40.806Z,6.10
2019-04-14T03:24:06.648Z,6.42
2019-04-14T03:26:35.207Z,6.15
2019-04-14T03:29:11.174Z,5.55
2019-04-14T03:34:29.885Z,5.50
2019-04-14T03:39:12.472Z,5.45
2019-04-14T03:41:42.873Z,5.72
2019-04-14T03:44:10.003Z,5.47
2019-04-14T03:46:41.541Z,5.50
2019-04-14T03:49:17.882Z,5.90
2019-04-14T03:51:45.293Z,6.10
2019-04-14T03:54:03.112Z,6.20
2019-04-14T03:56:34.097Z,5.15
2019-04-14T03:59:04.124Z,5.25
2019-04-14T04:01:33.128Z,5.70
2019-04-14T04:04:03.144Z,4.95
2019-04-14T04:06:33.409Z,6.00
2019-04-14T04:09:02.342Z,5.72
2019-04-14T04:11:32.206Z,5.92
2019-04-14T04:14:01.118Z,5.60
2019-04-14T04:16:35.427Z,5.50
2019-04-14T04:19:10.596Z,5.30
2019-04-14T04:21:44.461Z,4.65
2019-04-14T04:24:32.199Z,4.47
2019-04-14T04:27:04.644Z,4.12
2019-04-14T04:29:35.155Z,5.00
2019-04-14T04:32:05.760Z,4.40
2019-04-14T04:34:42.367Z,3.92
2019-04-14T04:37:19.264Z,4.33
2019-04-14T04:39:49.796Z,4.15
2019-04-14T04:42:19.744Z,4.83
2019-04-14T04:44:48.824Z,4.20
2019-04-14T04:47:18.690Z,4.17
2019-04-14T04:49:48.916Z,3.77
2019-04-14T04:52:19.049Z,3.70
2019-04-14T04:54:47.914Z,2.50
2019-04-14T04:57:17.818Z,3.25
2019-04-14T04:59:47.409Z,2.98
2019-04-14T05:02:16.243Z,3.00
2019-04-14T05:04:45.990Z,3.08
2019-04-14T05:07:14.971Z,3.10
2019-04-14T05:09:57.761Z,3.15
2019-04-14T05:12:37.606Z,3.37
2019-04-14T05:15:09.496Z,3.47
2019-04-14T05:17:43.134Z,3.60
2019-04-14T05:20:12.035Z,3.20
2019-04-14T05:22:41.782Z,3.40
2019-04-14T05:25:10.890Z,3.70
2019-04-14T05:27:40.831Z,3.33
2019-04-14T05:30:11.053Z,3.45
2019-04-14T05:32:41.155Z,3.45
2019-04-14T05:35:10.203Z,3.70
2019-04-14T05:37:39.978Z,3.92
2019-04-14T05:40:10.166Z,5.10
2019-04-14T05:42:40.610Z,5.08
2019-04-14T05:45:09.725Z,5.75
2019-04-14T05:47:39.376Z,5.42
2019-04-14T05:50:09.541Z,4.67
2019-04-14T05:52:38.451Z,4.00
2019-04-14T05:55:08.772Z,3.98
2019-04-14T05:57:37.753Z,3.83
2019-04-14T06:00:10.363Z,2.92
2019-04-14T06:02:39.978Z,3.27
2019-04-14T06:05:11.259Z,3.22
2019-04-14T06:07:39.655Z,3.37
2019-04-14T06:10:08.867Z,3.20
2019-04-14T06:12:37.699Z,3.77
2019-04-14T06:15:07.372Z,4.12
2019-04-14T06:17:36.221Z,4.15
2019-04-14T06:20:05.483Z,3.50
2019-04-14T06:22:34.276Z,3.83
2019-04-14T06:25:03.116Z,3.72
2019-04-14T06:27:31.911Z,3.47
2019-04-14T06:30:02.304Z,3.62
2019-04-14T06:32:32.694Z,3.65
2019-04-14T06:35:12.242Z,4.12
2019-04-14T06:37:59.201Z,9.80
2019-04-14T06:40:29.658Z,3.20
2019-04-14T06:42:58.473Z,3.98
2019-04-14T06:45:27.352Z,3.65
2019-04-14T06:47:56.153Z,3.70
2019-04-14T06:50:24.916Z,3.55
2019-04-14T06:52:53.713Z,3.80
2019-04-14T06:55:22.479Z,4.35
2019-04-14T06:57:51.353Z,3.77
2019-04-14T07:00:20.208Z,4.08
2019-04-14T07:02:49.041Z,4.72
2019-04-14T07:05:17.850Z,5.10
2019-04-14T07:07:56.517Z,3.60
2019-04-14T07:10:17.125Z,3.50
2019-04-14T07:12:45.943Z,3.35
2019-04-14T07:15:14.763Z,4.40
2019-04-14T07:17:43.637Z,4.05
2019-04-14T07:20:12.527Z,4.22
2019-04-14T07:22:41.326Z,4.72
2019-04-14T07:25:10.220Z,4.40
2019-04-14T07:27:39.220Z,3.42
2019-04-14T07:30:15.836Z,3.45
2019-04-14T07:33:01.542Z,3.60
2019-04-14T07:35:43.954Z,3.87
2019-04-14T07:38:14.497Z,3.40
2019-04-14T07:41:03.371Z,3.50
2019-04-14T07:43:39.739Z,3.42
2019-04-14T07:46:12.924Z,3.40
2019-04-14T07:48:49.274Z,2.90
2019-04-14T07:51:25.925Z,2.70
2019-04-14T07:53:59.103Z,2.50
2019-04-14T07:56:45.753Z,2.50
2019-04-14T07:59:22.170Z,2.90
2019-04-14T08:01:52.670Z,2.47
2019-04-14T08:04:23.040Z,2.47
2019-04-14T08:06:53.547Z,2.62
2019-04-14T08:09:22.385Z,2.12
2019-04-14T08:11:51.168Z,2.10
2019-04-14T08:14:20.037Z,2.33
2019-04-14T08:16:48.936Z,2.10
2019-04-14T08:19:17.694Z,1.95
2019-04-14T08:21:46.512Z,2.15
2019-04-14T08:24:15.350Z,2.00
2019-04-14T08:26:44.173Z,1.82
2019-04-14T08:29:12.977Z,2.10
2019-04-14T08:31:41.771Z,1.67
2019-04-14T08:34:10.573Z,1.70
2019-04-14T08:36:39.406Z,1.92
2019-04-14T08:39:08.323Z,1.60
2019-04-14T08:41:38.797Z,2.05
2019-04-14T08:44:25.775Z,1.60
2019-04-14T08:47:11.577Z,1.70
2019-04-14T08:49:48.012Z,1.80
2019-04-14T08:52:27.409Z,1.80
2019-04-14T08:54:57.865Z,2.10
2019-04-14T08:57:28.262Z,1.60
2019-04-14T09:00:13.657Z,1.82
2019-04-14T09:02:50.076Z,1.60
2019-04-14T09:05:20.485Z,1.62
2019-04-14T09:07:56.632Z,1.50
2019-04-14T09:10:30.130Z,1.72
2019-04-14T09:12:59.682Z,1.90
2019-04-14T09:15:28.525Z,1.67
2019-04-14T09:17:57.392Z,1.90
2019-04-14T09:20:26.179Z,1.77
2019-04-14T09:22:55.052Z,1.70
2019-04-14T09:25:23.811Z,1.70
2019-04-14T09:27:52.585Z,1.98
2019-04-14T09:30:21.412Z,2.00
2019-04-14T09:32:50.183Z,2.00
2019-04-14T09:35:18.919Z,1.87
2019-04-14T09:37:47.734Z,2.15
2019-04-14T09:40:16.498Z,2.30
2019-04-14T09:42:45.279Z,1.70
2019-04-14T09:45:14.100Z,2.02
2019-04-14T09:47:42.921Z,2.00
2019-04-14T09:50:11.795Z,1.92
2019-04-14T09:52:40.674Z,1.98
2019-04-14T09:55:09.436Z,1.98
2019-04-14T09:57:38.311Z,2.00
2019-04-14T10:00:07.755Z,1.90
2019-04-14T10:02:36.560Z,1.65
2019-04-14T10:05:07.069Z,2.12
2019-04-14T10:07:36.040Z,1.90
2019-04-14T10:10:06.139Z,2.00
2019-04-14T10:12:34.959Z,2.00
2019-04-14T10:15:04.020Z,2.20
2019-04-14T10:17:32.787Z,2.40
2019-04-14T10:20:01.599Z,2.15
2019-04-14T10:22:34.045Z,1.98
2019-04-14T10:25:00.850Z,2.22
2019-04-14T10:27:29.716Z,2.10
2019-04-14T10:29:58.534Z,2.50
2019-04-14T10:32:27.365Z,2.17
2019-04-14T10:34:56.186Z,2.10
2019-04-14T10:37:25.046Z,2.22
2019-04-14T10:39:53.856Z,2.58
2019-04-14T10:42:22.677Z,2.25
2019-04-14T10:44:51.469Z,3.47
2019-04-14T10:47:20.343Z,2.37
2019-04-14T10:49:49.164Z,1.98
2019-04-14T10:52:17.989Z,1.95
2019-04-14T10:54:46.717Z,2.20
2019-04-14T10:57:15.519Z,2.02
2019-04-14T10:59:44.358Z,2.10
2019-04-14T11:02:13.250Z,2.02
2019-04-14T11:04:42.088Z,2.62
2019-04-14T11:07:12.519Z,2.40
2019-04-14T11:09:41.272Z,2.52
2019-04-14T11:12:10.056Z,3.85
2019-04-14T11:14:38.912Z,2.62
2019-04-14T11:17:07.724Z,2.55
2019-04-14T11:19:36.477Z,3.02
2019-04-14T11:22:05.280Z,2.50
2019-04-14T11:24:34.100Z,2.20
2019-04-14T11:27:02.975Z,2.80
2019-04-14T11:29:31.788Z,2.67
2019-04-14T11:32:05.207Z,2.10
2019-04-14T11:34:38.341Z,2.65
2019-04-14T11:37:09.019Z,2.50
2019-04-14T11:39:37.873Z,2.25
2019-04-14T11:42:06.748Z,2.70
2019-04-14T11:44:35.604Z,2.60
2019-04-14T11:47:04.714Z,2.30
2019-04-14T11:49:33.503Z,2.12
2019-04-14T11:52:02.283Z,2.30
2019-04-14T11:54:31.066Z,2.10
2019-04-14T11:56:59.898Z,2.00
2019-04-14T11:59:30.309Z,2.80
2019-04-14T12:02:19.102Z,2.50
2019-04-14T12:04:55.234Z,3.10
2019-04-14T12:07:25.671Z,3.98
2019-04-14T12:10:05.172Z,5.60
2019-04-14T12:12:34.027Z,4.08
2019-04-14T12:15:02.770Z,4.03
2019-04-14T12:17:31.553Z,2.80
2019-04-14T12:20:00.347Z,2.40
2019-04-14T12:22:29.169Z,3.83
2019-04-14T12:24:57.929Z,2.45
2019-04-14T12:27:26.779Z,2.27
2019-04-14T12:29:56.734Z,2.40
2019-04-14T12:32:25.920Z,2.37
2019-04-14T12:34:54.794Z,2.50
2019-04-14T12:37:23.599Z,2.92
2019-04-14T12:39:52.377Z,2.40
2019-04-14T12:42:28.565Z,2.30
2019-04-14T12:45:15.445Z,3.08
2019-04-14T12:47:51.950Z,2.40
2019-04-14T12:50:25.075Z,2.20
2019-04-14T12:52:53.815Z,2.10
2019-04-14T12:55:22.715Z,2.00
2019-04-14T12:57:59.086Z,2.20
2019-04-14T13:00:38.799Z,1.92
2019-04-14T13:03:07.576Z,2.22
2019-04-14T13:05:36.470Z,2.47
2019-04-14T13:08:05.545Z,2.27
2019-04-14T13:10:34.422Z,2.30
2019-04-14T13:13:03.167Z,2.80
2019-04-14T13:15:31.933Z,2.30
2019-04-14T13:18:00.771Z,2.08
2019-04-14T13:20:29.532Z,2.37
2019-04-14T13:22:58.404Z,2.30
2019-04-14T13:25:27.177Z,2.33
2019-04-14T13:27:56.016Z,2.02
2019-04-14T13:30:26.484Z,2.30
2019-04-14T13:32:55.291Z,2.37
2019-04-14T13:35:24.076Z,2.08
2019-04-14T13:37:52.946Z,2.70
2019-04-14T13:40:21.795Z,1.77
2019-04-14T13:42:50.536Z,2.17
2019-04-14T13:45:19.393Z,2.17
2019-04-14T13:47:48.185Z,1.80
2019-04-14T13:50:16.960Z,2.40
2019-04-14T13:52:47.339Z,2.20
2019-04-14T13:55:16.633Z,2.00
2019-04-14T13:57:45.464Z,1.90
2019-04-14T14:00:15.012Z,2.22
2019-04-14T14:02:43.976Z,2.15
2019-04-14T14:05:13.083Z,2.00
2019-04-14T14:07:41.872Z,2.22
2019-04-14T14:10:10.750Z,2.50
2019-04-14T14:12:47.771Z,2.30
2019-04-14T14:15:18.257Z,2.30
2019-04-14T14:18:05.029Z,2.70
2019-04-14T14:20:51.517Z,2.00
2019-04-14T14:23:21.939Z,1.90
2019-04-14T14:25:52.323Z,2.20
2019-04-14T14:28:21.137Z,2.45
2019-04-14T14:30:49.960Z,2.80
2019-04-14T14:33:18.816Z,2.50
2019-04-14T14:35:47.641Z,2.35
2019-04-14T14:38:16.643Z,3.12
2019-04-14T14:40:45.494Z,2.70
2019-04-14T14:43:14.268Z,2.37
2019-04-14T14:45:53.753Z,3.12
2019-04-14T14:48:26.824Z,3.75
2019-04-14T14:50:57.285Z,2.83
2019-04-14T14:53:26.223Z,3.25
2019-04-14T14:55:55.010Z,4.47
2019-04-14T14:58:23.786Z,3.47
2019-04-14T15:00:52.564Z,2.80
2019-04-14T15:03:21.373Z,2.80
2019-04-14T15:05:50.185Z,3.60
2019-04-14T15:08:18.920Z,2.58
2019-04-14T15:10:47.711Z,2.55
2019-04-14T15:13:16.480Z,2.30
2019-04-14T15:15:45.319Z,2.33
2019-04-14T15:18:14.076Z,2.33
2019-04-14T15:20:42.871Z,2.60
2019-04-14T15:23:24.023Z,2.72
2019-04-14T15:25:42.100Z,2.75
2019-04-14T15:28:11.012Z,2.70
2019-04-14T15:30:39.809Z,2.83
2019-04-14T15:33:08.580Z,2.75
2019-04-14T15:35:37.365Z,2.37
2019-04-14T15:38:06.227Z,2.25
2019-04-14T15:40:35.161Z,2.10
2019-04-14T15:43:04.030Z,2.27
2019-04-14T15:45:32.899Z,2.27
2019-04-14T15:48:01.700Z,2.52
2019-04-14T15:50:30.493Z,2.02
2019-04-14T15:52:59.270Z,2.20
2019-04-14T15:55:28.315Z,2.70
2019-04-14T15:57:58.734Z,3.12
2019-04-14T16:00:41.074Z,2.80
2019-04-14T16:03:29.807Z,2.30
2019-04-14T16:06:00.254Z,2.55
2019-04-14T16:08:39.783Z,2.58
2019-04-14T16:11:26.828Z,3.27
2019-04-14T16:14:12.782Z,2.58
2019-04-14T16:16:59.331Z,3.00
2019-04-14T16:19:32.579Z,3.35
2019-04-14T16:22:01.365Z,2.83
2019-04-14T16:24:30.209Z,2.55
2019-04-14T16:27:17.009Z,3.12
2019-04-14T16:30:04.006Z,2.92
2019-04-14T16:32:50.811Z,3.20
2019-04-14T16:35:21.212Z,2.77
2019-04-14T16:37:49.982Z,2.90
2019-04-14T16:40:18.804Z,2.98
2019-04-14T16:42:47.559Z,2.80
2019-04-14T16:45:16.469Z,3.00
2019-04-14T16:47:45.293Z,3.37
2019-04-14T16:50:14.169Z,3.20
2019-04-14T16:52:44.571Z,3.25
2019-04-14T16:55:24.186Z,3.30
2019-04-14T16:58:03.776Z,2.85
2019-04-14T17:00:38.108Z,2.92
2019-04-14T17:03:06.892Z,3.10
2019-04-14T17:05:35.662Z,3.20
2019-04-14T17:08:04.516Z,3.72
2019-04-14T17:10:33.306Z,3.60
2019-04-14T17:13:02.196Z,3.92
2019-04-14T17:15:44.883Z,3.70
2019-04-14T17:18:15.336Z,3.85
2019-04-14T17:21:02.330Z,3.83
2019-04-14T17:23:32.806Z,3.85
2019-04-14T17:26:03.232Z,4.15
2019-04-14T17:28:33.690Z,3.22
2019-04-14T17:31:10.331Z,3.85
2019-04-14T17:33:46.590Z,3.37
2019-04-14T17:36:35.107Z,3.70
2019-04-14T17:39:16.214Z,3.37
2019-04-14T17:41:46.620Z,3.08
2019-04-14T17:44:17.065Z,3.83
2019-04-14T17:46:47.574Z,3.77
2019-04-14T17:49:26.743Z,4.78
2019-04-14T17:52:13.677Z,4.25
2019-04-14T17:54:47.303Z,4.25
2019-04-14T17:57:34.137Z,4.42
2019-04-14T18:00:19.844Z,4.70
2019-04-14T18:03:06.968Z,4.12
2019-04-14T18:05:52.441Z,4.90
2019-04-14T18:08:28.794Z,4.83
2019-04-14T18:11:15.529Z,7.08
2019-04-14T18:13:49.067Z,5.62
2019-04-14T18:16:35.879Z,5.40
2019-04-14T18:19:06.517Z,5.62
2019-04-14T18:21:35.517Z,5.40
2019-04-14T18:24:04.304Z,5.58
2019-04-14T18:26:33.074Z,6.47
2019-04-14T18:29:19.912Z,6.17
2019-04-14T18:31:59.429Z,6.20
2019-04-14T18:34:29.971Z,6.92
2019-04-14T18:37:03.162Z,6.50
2019-04-14T18:39:49.853Z,7.55
2019-04-14T18:42:32.870Z,7.95
2019-04-14T18:45:09.320Z,8.43
2019-04-14T18:47:39.742Z,8.95
2019-04-14T18:50:10.143Z,8.53
2019-04-14T18:52:57.177Z,8.40
2019-04-14T18:55:44.309Z,8.95
2019-04-14T18:58:14.734Z,8.73
2019-04-14T19:01:01.638Z,9.00
2019-04-14T19:03:30.798Z,9.05
2019-04-14T19:06:00.343Z,8.93
2019-04-14T19:08:29.501Z,9.10
2019-04-14T19:11:15.134Z,9.10
2019-04-14T19:13:48.271Z,9.18
2019-04-14T19:16:24.571Z,8.35
2019-04-14T19:19:03.644Z,8.58
2019-04-14T19:21:32.798Z,9.70
2019-04-14T19:24:01.674Z,8.75
2019-04-14T19:26:31.138Z,10.03
2019-04-14T19:28:59.955Z,8.75
2019-04-14T19:31:28.800Z,8.60
2019-04-14T19:33:57.608Z,8.13
2019-04-14T19:36:26.420Z,8.75
2019-04-14T19:38:55.260Z,7.95
2019-04-14T19:41:24.126Z,7.83
2019-04-14T19:43:52.968Z,7.50
2019-04-14T19:46:21.798Z,7.87
2019-04-14T19:48:50.667Z,8.28
2019-04-14T19:51:19.532Z,6.75
2019-04-14T19:53:48.419Z,6.90
2019-04-14T19:56:17.339Z,7.05
2019-04-14T19:58:46.114Z,6.62
2019-04-14T20:01:14.952Z,6.45
2019-04-14T20:03:43.770Z,6.62
2019-04-14T20:06:12.633Z,7.00
2019-04-14T20:08:41.472Z,7.08
2019-04-14T20:11:10.374Z,6.28
2019-04-14T20:13:40.867Z,6.78
2019-04-14T20:16:14.059Z,7.37
2019-04-14T20:18:44.477Z,7.20
2019-04-14T20:21:17.610Z,7.62
2019-04-14T20:23:48.062Z,6.67
2019-04-14T20:26:18.469Z,6.30
2019-04-14T20:28:48.995Z,5.92
2019-04-14T20:31:25.514Z,5.70
2019-04-14T20:33:54.425Z,6.05
2019-04-14T20:36:23.198Z,5.42
2019-04-14T20:38:52.031Z,5.92
2019-04-14T20:41:20.887Z,5.97
2019-04-14T20:43:49.701Z,6.42
2019-04-14T20:46:18.448Z,5.40
2019-04-14T20:48:47.355Z,5.47
2019-04-14T20:51:16.178Z,5.40
2019-04-14T20:53:44.980Z,5.90
2019-04-14T20:56:13.760Z,5.58
2019-04-14T20:58:42.645Z,5.08
2019-04-14T21:01:13.053Z,5.90
2019-04-14T21:03:46.440Z,5.28
2019-04-14T21:06:33.437Z,5.10
2019-04-14T21:09:19.262Z,5.60
2019-04-14T21:11:58.923Z,5.12
2019-04-14T21:14:29.314Z,5.20
2019-04-14T21:16:59.814Z,4.90
2019-04-14T21:19:46.561Z,4.70
2019-04-14T21:22:33.715Z,3.90
2019-04-14T21:25:13.070Z,3.90
2019-04-14T21:27:59.888Z,4.15
2019-04-14T21:30:33.262Z,3.40
2019-04-14T21:33:09.452Z,3.72
2019-04-14T21:35:54.872Z,3.30
2019-04-14T21:38:42.054Z,4.33
2019-04-14T21:41:15.399Z,3.72
2019-04-14T21:43:44.205Z,3.50
2019-04-14T21:46:14.041Z,3.65
2019-04-14T21:48:42.817Z,3.25
2019-04-14T21:51:11.559Z,3.87
2019-04-14T21:53:40.499Z,3.80
2019-04-14T21:56:13.515Z,4.22
2019-04-14T21:58:44.392Z,3.75
2019-04-14T22:01:39.741Z,5.15
2019-04-14T22:04:26.808Z,4.05
2019-04-14T22:06:57.254Z,4.00
2019-04-14T22:09:34.278Z,4.92
2019-04-14T22:12:04.721Z,3.90
2019-04-14T22:14:33.531Z,3.90
2019-04-14T22:17:02.403Z,4.15
2019-04-14T22:19:31.290Z,4.75
2019-04-14T22:22:00.026Z,4.17
2019-04-14T22:24:28.809Z,4.50
2019-04-14T22:26:57.595Z,3.95
2019-04-14T22:29:26.505Z,3.95
2019-04-14T22:31:55.354Z,3.70
2019-04-14T22:34:24.212Z,2.77
2019-04-14T22:36:52.985Z,2.60
2019-04-14T22:39:21.778Z,2.65
2019-04-14T22:41:50.583Z,4.03
2019-04-14T22:44:19.383Z,2.67
2019-04-14T22:46:48.251Z,2.90
2019-04-14T22:49:17.104Z,2.33
2019-04-14T22:51:45.847Z,2.85
2019-04-14T22:54:14.737Z,2.65
2019-04-14T22:56:43.529Z,2.50
2019-04-14T22:59:12.334Z,2.75
2019-04-14T23:01:42.833Z,2.37
2019-04-14T23:04:18.985Z,2.80
2019-04-14T23:06:55.429Z,2.17
2019-04-14T23:09:31.319Z,2.60
2019-04-14T23:12:11.353Z,2.55
2019-04-14T23:14:50.968Z,2.50
2019-04-14T23:17:36.528Z,2.37
2019-04-14T23:20:14.290Z,2.50
2019-04-14T23:23:01.395Z,2.72
2019-04-14T23:25:30.179Z,2.67
2019-04-14T23:27:59.017Z,2.62
2019-04-14T23:30:27.813Z,2.62
2019-04-14T23:32:58.048Z,2.90
2019-04-14T23:35:26.781Z,3.00
2019-04-14T23:37:55.552Z,2.45
2019-04-14T23:40:24.296Z,3.10
2019-04-14T23:42:53.085Z,2.87
2019-04-14T23:45:21.826Z,3.05
2019-04-14T23:47:50.740Z,3.20
2019-04-14T23:50:19.532Z,3.30
2019-04-14T23:52:48.332Z,3.60
2019-04-14T23:55:17.100Z,3.67
2019-04-14T23:57:45.912Z,3.50
